Flight Track Log - Related Links

Times and Time Zones

All times are in EDT time to prevent confusion due to time zone crossing. See the N2164L flight status page for this flight to view local times or setup timezone preferences in your user account.


Time Position Orientation Groundspeed Altitude Reporting Facility
EDT Latitude Longitude Course Direction KTS MPH feet Rate Location/Type
Thu 04:16:10 PM 42.9964 -108.2878 99° East 202 232 11,000  Level Salt Lake Center
Thu 04:17:12 PM 42.9917 -108.2053 94° East 218 251 11,000  Level Salt Lake Center
Thu 04:18:14 PM 42.9894 -108.1253 92° East 221 254 11,000  Level Salt Lake Center
Thu 04:19:15 PM 42.9853 -108.0386 94° East 212 244 11,000 49 Level Salt Lake Center
Thu 04:20:00 PM 42.9983 -107.5610 96° East  Level Estimated
Thu 04:20:17 PM 42.9828 -107.9722 93° East 195 224 11,100  Level Salt Lake Center
Thu 04:21:00 PM 42.9882 -107.4718 99° East  Level FlightAware Approximate
Thu 04:21:19 PM 42.9786 -107.8867 94° East 198 228 11,100  Level Salt Lake Center
Thu 04:22:20 PM 42.9750 -107.8100 94° East 208 239 11,100  Level Salt Lake Center
Thu 04:23:22 PM 42.9558 -107.7219 107° East 216 249 11,100  Level Salt Lake Center
Thu 04:24:24 PM 42.9356 -107.6572 113° Southeast 207 238 11,100  Level Salt Lake Center
Thu 04:25:25 PM 42.9097 -107.5764 114° Southeast 208 239 11,100  Level Salt Lake Center
Thu 04:26:27 PM 42.8967 -107.5103 105° East 199 229 11,100  Level Salt Lake Center
Thu 04:27:29 PM 42.9000 -107.4228 87° East 208 239 11,100  Level Salt Lake Center
Thu 04:28:30 PM 42.9014 -107.3467 89° East 204 235 11,100  Level Salt Lake Center
Thu 04:29:32 PM 42.9033 -107.2772 88° East 198 228 11,100  Level Salt Lake Center
Thu 04:30:34 PM 42.9042 -107.1925 89° East 198 228 11,100  Level Salt Lake Center
Thu 04:31:35 PM 42.9042 -107.1156 90° East 202 232 11,100  Level Salt Lake Center
Thu 04:32:37 PM 42.8969 -107.0281 96° East 209 241 11,100  Level Salt Lake Center
Thu 04:34:28 PM 42.8608 -106.8797 108° East 186 214 11,100  Level Salt Lake Center
Thu 04:35:27 PM 42.8419 -106.8053 109° East 210 242 11,100  Level Denver Center
Thu 04:36:40 PM 42.8228 -106.7258 108° East 209 241 11,100  Level Denver Center
Thu 04:37:43 PM 42.7983 -106.6383 111° Southeast 210 242 11,100  Level Denver Center
Thu 04:38:44 PM 42.7753 -106.5536 110° East 212 244 11,100  Level Denver Center
Thu 04:39:46 PM 42.7550 -106.4808 111° Southeast 214 246 11,100  Level Denver Center
Thu 04:40:48 PM 42.7806 -106.4075 65° Northeast 217 250 11,100  Level Denver Center
Thu 04:41:50 PM 42.8161 -106.3525 49° Northeast 208 239 11,100  Level Denver Center
Thu 04:42:51 PM 42.8486 -106.2992 50° Northeast 199 229 11,100  Level Denver Center
Thu 04:43:53 PM 42.8867 -106.2378 50° Northeast 194 223 11,100  Level Denver Center
Thu 04:44:55 PM 42.9178 -106.1803 54° Northeast 196 226 11,100  Level Denver Center
Thu 04:45:57 PM 42.9383 -106.0986 71° East 203 234 11,100  Level Denver Center
Thu 04:46:58 PM 42.9558 -106.0278 71° East 204 235 11,100 -195 Level Denver Center
Thu 04:48:00 PM 42.9111 -105.9981 154° Southeast 202 232 10,700 -441 Descending Denver Center
Thu 04:49:14 PM 42.9097 -106.0478 268° West 160 184 10,100 -662 Descending Denver Center
Thu 04:50:16 PM 42.9156 -106.1142 277° West 144 166 9,200 -677 Descending Denver Center
Thu 04:51:18 PM 42.9131 -106.1656 266° West 141 162 8,700 -532 Descending Denver Center
Thu 04:52:20 PM 42.9114 -106.2219 268° West 136 157 8,100 -341 Descending Denver Center
Thu 04:53:21 PM 42.9111 -106.2686 270° West 132 152 8,000 -293 Descending Denver Center
Thu 04:54:23 PM 42.9097 -106.3022 267° West 123 142 7,500 -581 Descending Denver Center
Thu 04:55:25 PM 42.9106 -106.3578 271° West 116 133 6,800 -435 Descending Denver Center
Thu 04:56:27 PM 42.9100 -106.3989 269° West 117 135 6,600 -194 Descending Denver Center
Thu 04:58:00 PM 42.9000 -106.4500 North  Level FlightAware Approximate

Login

Don't have an account? Register now (free) for customized features, flight alerts, and more!